Time;durP1;ratioP1;P1;durP2;ratioP2;P2;SDS_P1;SDS_P2;PMS_P1;PMS_P2;Temp;Humidity;BMP_temperature;BMP_pressure;BME280_temperature;BME280_humidity;BME280_pressure;Samples;Min_cycle;Max_cycle;Signal;HPM_P1;HPM_P2
2023/04/08 00:00:56;;;;;;;6.70;4.80;;;;;;;6.37;77.70;101499.77;106469;1254;72704;-70
2023/04/08 00:03:22;;;;;;;7.10;5.00;;;;;;;6.38;77.86;101505.13;106666;1255;61791;-70
2023/04/08 00:05:49;;;;;;;7.50;5.00;;;;;;;6.36;78.05;101506.91;108419;1253;59130;-68
2023/04/08 00:08:16;;;;;;;7.20;5.40;;;;;;;6.34;77.88;101505.67;107583;1256;75005;-70
2023/04/08 00:10:42;;;;;;;7.30;5.20;;;;;;;6.33;78.14;101503.79;106376;1255;59920;-70
2023/04/08 00:13:09;;;;;;;7.80;5.30;;;;;;;6.33;78.17;101500.65;106041;1256;61210;-73
2023/04/08 00:15:36;;;;;;;7.20;5.30;;;;;;;6.33;78.17;101502.06;106022;1254;61329;-69
2023/04/08 00:18:02;;;;;;;7.00;5.30;;;;;;;6.32;78.19;101506.20;106200;1254;61361;-71
2023/04/08 00:20:29;;;;;;;7.60;5.60;;;;;;;6.30;78.30;101505.27;106578;1255;74148;-70
2023/04/08 00:22:56;;;;;;;7.70;5.50;;;;;;;6.30;78.28;101506.34;107011;1254;70069;-70
2023/04/08 00:25:22;;;;;;;7.30;5.40;;;;;;;6.29;78.41;101511.33;106196;1255;71322;-70
2023/04/08 00:27:51;;;;;;;7.60;5.40;;;;;;;6.28;78.54;101513.92;105937;1254;61298;-69
2023/04/08 00:30:18;;;;;;;7.80;5.60;;;;;;;6.28;78.41;101514.61;106036;1256;61637;-70
2023/04/08 00:32:45;;;;;;;7.90;5.40;;;;;;;6.27;78.56;101514.33;106236;1254;73154;-72
2023/04/08 00:35:12;;;;;;;7.70;5.80;;;;;;;6.27;78.77;101517.36;105974;1257;70898;-69
2023/04/08 00:37:39;;;;;;;8.10;6.10;;;;;;;6.24;78.74;101514.20;106112;1254;72389;-70
2023/04/08 00:40:06;;;;;;;9.10;6.10;;;;;;;6.23;79.08;101508.73;107231;1255;60486;-70
2023/04/08 00:42:33;;;;;;;9.10;5.90;;;;;;;6.22;79.41;101511.94;106269;1258;61240;-70
2023/04/08 00:44:59;;;;;;;8.50;5.70;;;;;;;6.20;79.57;101508.38;105746;1260;61292;-73
2023/04/08 00:47:26;;;;;;;7.70;5.60;;;;;;;6.22;79.82;101511.80;106039;1255;71012;-69
2023/04/08 00:49:52;;;;;;;8.10;5.60;;;;;;;6.24;80.05;101510.70;105949;1258;72783;-71
2023/04/08 00:52:19;;;;;;;8.10;5.80;;;;;;;6.25;80.29;101508.67;106060;1257;61659;-70
2023/04/08 00:54:46;;;;;;;7.80;6.00;;;;;;;6.24;80.18;101505.83;105913;1257;61274;-72
2023/04/08 00:57:13;;;;;;;8.50;5.70;;;;;;;6.21;80.49;101503.98;106656;1255;73191;-69
2023/04/08 00:59:40;;;;;;;7.70;5.60;;;;;;;6.17;80.87;101508.70;106370;1255;70316;-70
2023/04/08 01:02:25;;;;;;;9.20;6.10;;;;;;;6.14;80.84;101506.43;106526;1253;71180;-71
2023/04/08 01:05:06;;;;;;;7.50;5.40;;;;;;;6.15;81.06;101505.34;105956;1253;61318;-72
2023/04/08 01:07:37;;;;;;;7.60;5.80;;;;;;;6.16;81.14;101508.60;105992;1254;59258;-71
2023/04/08 01:10:12;;;;;;;8.50;6.10;;;;;;;6.14;81.20;101505.38;106092;1253;74321;-70
2023/04/08 01:12:55;;;;;;;9.50;6.00;;;;;;;6.13;81.48;101511.92;106181;1254;69886;-70
2023/04/08 01:15:23;;;;;;;7.00;5.40;;;;;;;6.12;81.39;101511.12;106417;1255;71531;-70
2023/04/08 01:17:53;;;;;;;8.70;6.10;;;;;;;6.12;81.49;101515.39;107165;1254;61285;-69
2023/04/08 01:20:22;;;;;;;9.30;5.70;;;;;;;6.12;81.69;101518.55;105880;1258;61427;-70
2023/04/08 01:23:17;;;;;;;7.50;5.40;;;;;;;6.08;82.33;101512.90;106240;1255;74389;-72
2023/04/08 01:25:53;;;;;;;7.20;5.60;;;;;;;5.94;83.86;101512.23;105953;1255;69679;-71
2023/04/08 01:28:22;;;;;;;9.40;6.40;;;;;;;5.83;84.24;101517.89;105859;1254;72542;-69
2023/04/08 01:30:50;;;;;;;8.80;6.00;;;;;;;5.81;83.85;101510.33;106089;1256;61351;-71
2023/04/08 01:33:18;;;;;;;7.90;6.20;;;;;;;5.80;84.39;101510.56;106545;1255;61635;-69
2023/04/08 01:35:45;;;;;;;7.20;5.50;;;;;;;5.79;84.45;101508.17;106990;1255;73641;-70
2023/04/08 01:38:17;;;;;;;7.70;6.00;;;;;;;5.79;84.60;101506.45;106239;1255;71240;-70
2023/04/08 01:40:45;;;;;;;8.80;6.30;;;;;;;5.77;84.73;101502.39;106000;1255;72263;-70
2023/04/08 01:43:15;;;;;;;10.30;6.40;;;;;;;5.77;84.63;101499.06;106039;1255;61469;-69
2023/04/08 01:45:46;;;;;;;9.30;6.40;;;;;;;5.76;84.98;101490.92;105884;1258;62556;-70
2023/04/08 01:48:14;;;;;;;9.50;6.30;;;;;;;5.72;85.36;101491.67;106073;1257;74757;-70
2023/04/08 01:50:43;;;;;;;7.80;5.60;;;;;;;5.71;85.20;101490.23;106236;1254;70952;-73
2023/04/08 01:53:11;;;;;;;10.90;6.20;;;;;;;5.71;85.29;101488.64;106783;1255;72378;-69
2023/04/08 01:55:40;;;;;;;8.80;6.40;;;;;;;5.73;85.29;101485.66;106622;1256;61369;-72
2023/04/08 01:58:07;;;;;;;10.10;6.70;;;;;;;5.76;85.24;101486.89;106136;1254;62578;-71
2023/04/08 02:00:35;;;;;;;9.60;6.40;;;;;;;5.76;85.85;101489.48;105887;1255;73155;-70
2023/04/08 02:03:05;;;;;;;10.20;5.90;;;;;;;5.73;85.99;101491.63;105938;1257;68926;-71
2023/04/08 02:05:33;;;;;;;9.50;6.00;;;;;;;5.72;86.02;101494.14;106119;1254;72672;-71
2023/04/08 02:08:00;;;;;;;9.10;5.70;;;;;;;5.70;86.47;101493.63;106256;1255;61141;-72
2023/04/08 02:10:26;;;;;;;8.20;5.70;;;;;;;5.65;86.95;101494.19;106479;1254;63256;-70
2023/04/08 02:12:54;;;;;;;9.60;6.40;;;;;;;5.66;86.37;101496.60;107113;1254;72902;-70
2023/04/08 02:15:21;;;;;;;7.80;6.10;;;;;;;5.68;86.31;101493.63;106003;1254;69636;-70
2023/04/08 02:17:55;;;;;;;9.20;6.30;;;;;;;5.69;86.17;101491.63;106040;1255;70276;-70
2023/04/08 02:20:30;;;;;;;8.70;5.70;;;;;;;5.70;86.17;101487.30;106083;1256;61788;-73
2023/04/08 02:23:03;;;;;;;8.90;6.00;;;;;;;5.71;86.48;101489.34;106059;1258;62194;-70
2023/04/08 02:25:36;;;;;;;9.50;6.20;;;;;;;5.71;86.13;101492.30;105967;1258;73219;-71
2023/04/08 02:28:06;;;;;;;9.50;6.30;;;;;;;5.73;86.21;101492.14;105884;1256;69932;-72
2023/04/08 02:30:36;;;;;;;8.80;5.80;;;;;;;5.77;86.32;101494.16;107120;1254;71459;-69
2023/04/08 02:33:03;;;;;;;8.30;5.80;;;;;;;5.78;86.26;101497.79;106023;1258;61376;-72
2023/04/08 02:35:31;;;;;;;9.40;6.10;;;;;;;5.79;86.36;101497.83;106075;1255;61183;-72
2023/04/08 02:37:58;;;;;;;9.30;6.30;;;;;;;5.79;86.37;101497.52;105993;1256;74725;-69
2023/04/08 02:40:30;;;;;;;8.90;6.10;;;;;;;5.79;86.26;101494.52;106027;1255;68788;-71
2023/04/08 02:42:58;;;;;;;9.60;6.20;;;;;;;5.82;86.20;101499.52;106147;1254;71853;-71
2023/04/08 02:45:30;;;;;;;10.00;6.30;;;;;;;5.83;86.21;101500.87;106111;1254;62882;-70
2023/04/08 02:47:59;;;;;;;10.90;6.10;;;;;;;5.82;86.14;101499.88;106962;1255;61226;-70
2023/04/08 02:50:26;;;;;;;8.10;5.90;;;;;;;5.83;86.07;101503.30;106663;1256;73032;-70
2023/04/08 02:52:53;;;;;;;9.90;6.20;;;;;;;5.82;86.43;101513.22;106018;1256;70909;-71
2023/04/08 02:55:22;;;;;;;9.20;5.80;;;;;;;5.81;86.30;101520.00;106102;1254;72930;-72
2023/04/08 02:57:48;;;;;;;8.90;6.10;;;;;;;5.79;86.38;101515.23;106158;1257;62443;-72
2023/04/08 03:00:16;;;;;;;9.30;6.30;;;;;;;5.77;86.76;101514.52;106234;1255;61263;-71
2023/04/08 03:02:42;;;;;;;9.80;6.20;;;;;;;5.75;86.85;101511.87;106067;1255;73925;-70
2023/04/08 03:05:09;;;;;;;8.70;5.80;;;;;;;5.73;86.90;101516.56;106490;1254;70465;-73
2023/04/08 03:07:36;;;;;;;9.20;5.90;;;;;;;5.71;87.07;101513.89;106699;1255;71330;-70
2023/04/08 03:10:03;;;;;;;9.90;6.10;;;;;;;5.69;87.28;101516.31;106038;1255;61373;-74
2023/04/08 03:12:30;;;;;;;10.40;7.00;;;;;;;5.69;87.14;101516.14;105979;1255;61103;-73
2023/04/08 03:14:57;;;;;;;9.80;6.60;;;;;;;5.73;87.05;101517.79;105941;1255;61386;-72
2023/04/08 03:17:23;;;;;;;11.70;6.90;;;;;;;5.74;87.29;101519.98;106080;1254;61277;-73
2023/04/08 03:19:50;;;;;;;9.20;6.50;;;;;;;5.76;87.14;101521.46;106124;1255;61226;-70
2023/04/08 03:22:18;;;;;;;11.30;7.40;;;;;;;5.77;87.52;101522.26;106158;1254;61274;-69
2023/04/08 03:24:45;;;;;;;10.40;6.60;;;;;;;5.73;87.51;101521.08;107370;1256;61282;-70
2023/04/08 03:27:11;;;;;;;10.30;6.60;;;;;;;5.74;87.54;101524.19;106064;1256;75255;-69
2023/04/08 03:29:38;;;;;;;12.50;7.40;;;;;;;5.77;87.52;101530.13;106163;1255;61270;-71
2023/04/08 03:32:05;;;;;;;10.50;7.20;;;;;;;5.78;87.53;101532.50;106056;1254;71281;-70
2023/04/08 03:34:33;;;;;;;11.60;7.60;;;;;;;5.78;87.69;101535.15;106084;1256;61647;-71
2023/04/08 03:37:00;;;;;;;11.40;7.80;;;;;;;5.79;87.40;101532.58;105950;1255;61247;-72
2023/04/08 03:39:27;;;;;;;14.10;7.50;;;;;;;5.83;87.45;101533.12;106128;1254;73709;-70
2023/04/08 03:41:54;;;;;;;11.10;8.20;;;;;;;5.85;87.67;101530.86;107515;1254;69977;-69
2023/04/08 03:44:20;;;;;;;11.50;7.90;;;;;;;5.86;87.50;101528.31;107546;1254;71194;-70
2023/04/08 03:46:46;;;;;;;12.80;8.60;;;;;;;5.86;87.86;101530.80;107550;1253;59957;-68
2023/04/08 03:49:13;;;;;;;12.80;8.30;;;;;;;5.86;87.86;101528.33;105949;1255;62319;-70
2023/04/08 03:51:39;;;;;;;13.00;8.50;;;;;;;5.83;88.34;101527.70;106777;1254;61250;-69
2023/04/08 03:54:06;;;;;;;13.30;8.60;;;;;;;5.82;88.51;101526.04;106242;1258;61240;-70
2023/04/08 03:56:34;;;;;;;13.50;8.70;;;;;;;5.79;88.91;101525.58;107263;1259;72863;-70
2023/04/08 03:59:00;;;;;;;12.40;8.30;;;;;;;5.76;89.11;101523.90;107159;1254;61164;-69
2023/04/08 04:01:28;;;;;;;14.70;8.90;;;;;;;5.73;89.19;101520.09;108043;1256;59006;-69
2023/04/08 04:03:55;;;;;;;15.80;9.20;;;;;;;5.75;89.32;101524.67;107295;1253;75284;-69
2023/04/08 04:06:22;;;;;;;14.80;9.40;;;;;;;5.76;89.46;101527.23;107686;1254;69968;-69
2023/04/08 04:08:49;;;;;;;15.10;8.90;;;;;;;5.77;89.44;101525.36;107563;1254;61324;-70
2023/04/08 04:11:16;;;;;;;17.90;10.50;;;;;;;5.78;89.61;101526.89;107275;1253;60072;-69
2023/04/08 04:13:42;;;;;;;15.70;9.80;;;;;;;5.79;89.51;101532.23;107258;1254;61257;-71
2023/04/08 04:16:09;;;;;;;14.80;9.20;;;;;;;5.79;90.09;101533.79;107393;1254;61133;-70
2023/04/08 04:18:35;;;;;;;14.60;9.60;;;;;;;5.79;89.72;101536.66;108332;1255;61126;-70
2023/04/08 04:21:05;;;;;;;14.90;9.20;;;;;;;5.81;89.76;101541.38;107437;1253;72374;-70
2023/04/08 04:23:32;;;;;;;17.00;10.60;;;;;;;5.83;89.99;101545.08;107696;1254;61643;-70
2023/04/08 04:25:59;;;;;;;15.50;9.60;;;;;;;5.83;89.89;101549.16;107669;1255;60729;-69
2023/04/08 04:28:25;;;;;;;16.00;9.60;;;;;;;5.82;90.33;101552.71;107838;1254;75132;-69
2023/04/08 04:30:52;;;;;;;15.90;10.00;;;;;;;5.80;90.56;101554.08;106900;1255;61370;-74
2023/04/08 04:33:21;;;;;;;16.70;10.40;;;;;;;5.81;90.32;101559.45;106307;1254;72755;-69
2023/04/08 04:35:48;;;;;;;17.30;10.10;;;;;;;5.81;90.92;101556.16;106753;1255;59129;-70
2023/04/08 04:38:15;;;;;;;16.50;11.40;;;;;;;5.80;90.72;101559.39;106962;1254;61174;-68
2023/04/08 04:40:41;;;;;;;18.00;10.90;;;;;;;5.81;90.71;101554.73;106247;1254;73458;-68
2023/04/08 04:43:08;;;;;;;19.40;11.30;;;;;;;5.84;90.67;101557.27;106138;1256;70423;-70
2023/04/08 04:45:34;;;;;;;20.90;11.60;;;;;;;5.86;90.93;101562.55;106477;1256;61319;-70
2023/04/08 04:48:02;;;;;;;16.60;10.40;;;;;;;5.87;90.78;101567.77;106288;1259;61636;-70
2023/04/08 04:50:29;;;;;;;16.30;10.50;;;;;;;5.84;91.23;101566.80;106118;1255;61242;-71
2023/04/08 04:52:56;;;;;;;18.70;10.80;;;;;;;5.82;91.17;101569.56;106918;1255;74423;-70
2023/04/08 04:55:22;;;;;;;19.30;10.90;;;;;;;5.81;91.64;101577.56;106579;1254;69958;-70
2023/04/08 04:57:49;;;;;;;21.20;11.30;;;;;;;5.79;91.60;101574.52;106934;1256;61607;-72
2023/04/08 05:00:16;;;;;;;19.40;11.80;;;;;;;5.79;91.59;101580.15;107578;1254;61102;-71
2023/04/08 05:02:42;;;;;;;19.30;11.80;;;;;;;5.79;91.90;101579.95;106687;1260;61160;-70
2023/04/08 05:05:09;;;;;;;20.10;11.30;;;;;;;5.79;92.42;101581.42;105803;1258;73454;-71
2023/04/08 05:07:37;;;;;;;21.50;12.80;;;;;;;5.78;92.26;101587.09;106448;1254;71815;-68
2023/04/08 05:10:04;;;;;;;18.70;12.10;;;;;;;5.81;92.17;101591.23;106020;1256;72495;-72
2023/04/08 05:12:32;;;;;;;20.90;12.20;;;;;;;5.84;91.97;101590.30;106744;1255;61247;-70
2023/04/08 05:14:58;;;;;;;20.20;12.90;;;;;;;5.86;91.88;101593.42;106733;1253;62006;-71
2023/04/08 05:17:25;;;;;;;20.90;12.50;;;;;;;5.89;91.84;101601.10;105979;1255;61309;-71
2023/04/08 05:19:52;;;;;;;17.90;11.40;;;;;;;5.91;91.77;101601.49;106771;1256;70534;-70
2023/04/08 05:22:19;;;;;;;19.20;11.40;;;;;;;5.89;92.14;101601.66;105995;1255;71797;-71
2023/04/08 05:24:45;;;;;;;18.20;11.10;;;;;;;5.88;92.14;101595.91;106669;1255;61389;-70
2023/04/08 05:27:11;;;;;;;16.60;10.80;;;;;;;5.83;92.67;101600.91;105909;1258;61254;-69
2023/04/08 05:29:38;;;;;;;19.60;11.90;;;;;;;5.82;92.13;101597.11;106996;1256;61222;-70
2023/04/08 05:32:05;;;;;;;17.20;11.70;;;;;;;5.85;92.26;101594.42;106529;1255;61861;-71
2023/04/08 05:34:31;;;;;;;19.40;12.10;;;;;;;5.89;92.13;101595.52;106586;1256;61116;-69
2023/04/08 05:36:58;;;;;;;18.10;10.40;;;;;;;5.88;92.65;101596.65;105916;1256;230712;-72
2023/04/08 05:39:24;;;;;;;18.40;11.00;;;;;;;5.86;92.57;101598.60;106111;1255;61229;-71
2023/04/08 05:41:51;;;;;;;18.30;11.30;;;;;;;5.83;92.76;101598.42;107281;1253;61127;-70
2023/04/08 05:44:17;;;;;;;19.00;11.80;;;;;;;5.88;92.55;101599.29;109169;1254;68930;-70
2023/04/08 05:46:44;;;;;;;19.80;11.90;;;;;;;5.97;92.54;101597.39;108422;1253;61905;-69
2023/04/08 05:49:11;;;;;;;19.80;12.00;;;;;;;6.02;92.22;101600.08;107773;1254;61189;-69
2023/04/08 05:51:38;;;;;;;16.80;11.00;;;;;;;6.07;91.84;101605.68;106945;1254;62560;-69
2023/04/08 05:54:04;;;;;;;21.20;11.60;;;;;;;6.12;91.49;101609.83;106340;1256;74410;-71
2023/04/08 05:56:33;;;;;;;17.40;10.80;;;;;;;6.18;91.29;101612.94;106023;1256;62147;-70
2023/04/08 05:59:00;;;;;;;15.00;9.80;;;;;;;6.21;91.05;101616.17;106069;1255;72551;-70
2023/04/08 06:01:26;;;;;;;15.70;10.20;;;;;;;6.23;90.71;101619.23;106468;1257;61344;-69
2023/04/08 06:03:55;;;;;;;15.80;9.90;;;;;;;6.23;90.88;101620.26;106730;1254;61356;-70
2023/04/08 06:06:22;;;;;;;15.10;9.80;;;;;;;6.22;90.90;101622.23;105944;1256;72542;-70
2023/04/08 06:08:49;;;;;;;15.80;10.30;;;;;;;6.18;90.82;101620.11;106919;1256;70928;-73
2023/04/08 06:11:16;;;;;;;18.40;11.10;;;;;;;6.21;90.89;101621.95;105994;1255;72701;-68
2023/04/08 06:13:42;;;;;;;17.50;11.10;;;;;;;6.27;90.94;101627.63;105854;1257;61601;-71
2023/04/08 06:16:19;;;;;;;16.90;11.10;;;;;;;6.33;90.59;101631.55;106317;1255;61287;-70
2023/04/08 06:18:47;;;;;;;14.50;10.80;;;;;;;6.37;90.18;101635.27;106393;1254;73461;-71
2023/04/08 06:21:15;;;;;;;15.60;10.80;;;;;;;6.36;90.29;101634.98;106233;1256;70223;-69
2023/04/08 06:23:41;;;;;;;14.50;10.10;;;;;;;6.28;90.55;101633.36;106352;1258;73111;-69
2023/04/08 06:26:08;;;;;;;16.30;10.40;;;;;;;6.25;90.65;101632.36;106777;1254;61240;-69
2023/04/08 06:28:34;;;;;;;14.30;9.30;;;;;;;6.27;90.70;101637.63;106627;1255;61259;-68
2023/04/08 06:31:01;;;;;;;17.30;11.50;;;;;;;6.30;90.58;101638.30;105852;1255;73242;-71
2023/04/08 06:33:28;;;;;;;16.00;10.80;;;;;;;6.37;90.66;101638.92;106058;1258;61101;-70
2023/04/08 06:36:04;;;;;;;14.60;10.00;;;;;;;6.44;90.35;101642.39;106070;1258;72317;-69
2023/04/08 06:38:31;;;;;;;17.50;11.00;;;;;;;6.53;90.04;101637.64;105955;1256;61242;-70
2023/04/08 06:41:02;;;;;;;13.70;9.80;;;;;;;6.63;89.75;101644.02;106859;1254;61249;-69
2023/04/08 06:43:30;;;;;;;16.20;10.60;;;;;;;6.71;89.48;101651.75;106838;1260;73197;-70
2023/04/08 06:45:56;;;;;;;16.20;10.90;;;;;;;6.78;89.04;101649.98;106345;1254;70052;-69
2023/04/08 06:48:27;;;;;;;18.40;11.00;;;;;;;6.83;88.64;101654.52;106130;1255;71177;-70
2023/04/08 06:50:55;;;;;;;15.80;10.30;;;;;;;6.87;88.27;101660.70;105985;1255;62536;-70
2023/04/08 06:53:31;;;;;;;13.60;9.20;;;;;;;6.84;88.27;101662.89;106281;1257;61266;-71
2023/04/08 06:55:58;;;;;;;14.90;10.60;;;;;;;6.80;88.17;101665.48;106213;1256;73510;-68
2023/04/08 06:58:26;;;;;;;14.50;9.80;;;;;;;6.83;88.52;101665.46;106724;1256;70045;-68
2023/04/08 07:00:54;;;;;;;13.60;9.90;;;;;;;6.84;88.36;101663.93;106216;1256;72559;-72
2023/04/08 07:03:22;;;;;;;12.40;8.80;;;;;;;6.77;88.45;101670.81;106540;1261;61213;-68
2023/04/08 07:05:49;;;;;;;14.50;9.80;;;;;;;6.71;88.84;101673.96;106631;1257;61144;-69
2023/04/08 07:08:16;;;;;;;15.60;10.60;;;;;;;6.75;88.80;101672.61;106175;1254;73284;-72
2023/04/08 07:10:42;;;;;;;15.30;10.40;;;;;;;6.85;88.93;101671.61;105615;1256;71677;-70
2023/04/08 07:13:09;;;;;;;14.80;10.30;;;;;;;6.95;88.54;101674.08;105657;1255;61256;-72
2023/04/08 07:15:36;;;;;;;14.40;9.80;;;;;;;7.04;88.35;101671.42;106422;1254;62302;-71
2023/04/08 07:18:03;;;;;;;16.60;10.60;;;;;;;7.12;88.01;101674.95;106003;1260;61217;-76
2023/04/08 07:20:30;;;;;;;16.70;10.60;;;;;;;7.18;87.46;101676.77;106163;1256;74936;-72
2023/04/08 07:22:58;;;;;;;16.70;10.60;;;;;;;7.21;87.63;101673.71;105796;1256;70257;-71
2023/04/08 07:25:24;;;;;;;14.10;10.00;;;;;;;7.18;87.05;101679.77;105547;1255;71383;-70
2023/04/08 07:27:51;;;;;;;15.10;10.10;;;;;;;7.15;86.91;101680.39;105782;1256;62185;-71
2023/04/08 07:30:18;;;;;;;16.70;10.50;;;;;;;7.16;87.21;101681.66;105560;1255;62556;-71
2023/04/08 07:32:45;;;;;;;15.40;10.40;;;;;;;7.07;87.30;101682.23;105672;1260;74951;-72
2023/04/08 07:35:12;;;;;;;17.50;10.60;;;;;;;6.99;87.97;101683.60;105765;1256;70938;-71
2023/04/08 07:37:39;;;;;;;14.60;10.30;;;;;;;6.99;87.98;101685.60;106018;1258;72689;-70
2023/04/08 07:40:07;;;;;;;13.40;9.80;;;;;;;6.92;88.31;101683.96;106151;1254;61346;-71
2023/04/08 07:42:33;;;;;;;15.90;10.80;;;;;;;6.89;88.38;101686.50;107047;1255;61907;-71
2023/04/08 07:45:00;;;;;;;16.70;10.70;;;;;;;6.95;88.40;101687.44;109182;1256;74735;-71
2023/04/08 07:47:28;;;;;;;16.90;10.20;;;;;;;7.03;88.76;101690.52;109103;1253;70914;-72
2023/04/08 07:49:55;;;;;;;16.00;11.10;;;;;;;7.09;88.03;101690.71;108990;1254;72579;-72
2023/04/08 07:52:22;;;;;;;15.50;10.40;;;;;;;7.18;87.92;101691.02;109045;1253;60075;-72
2023/04/08 07:54:49;;;;;;;14.10;9.90;;;;;;;7.15;87.74;101692.52;108922;1255;59124;-69
2023/04/08 07:57:15;;;;;;;16.60;10.50;;;;;;;7.14;87.70;101693.64;106473;1256;73297;-70
2023/04/08 07:59:42;;;;;;;15.80;9.70;;;;;;;7.21;87.51;101693.90;105819;1256;70082;-73
2023/04/08 08:02:08;;;;;;;16.10;10.60;;;;;;;7.26;87.51;101696.86;105652;1256;61266;-71
2023/04/08 08:04:35;;;;;;;13.90;9.80;;;;;;;7.30;87.25;101701.27;105982;1255;61131;-71
2023/04/08 08:07:02;;;;;;;16.80;10.50;;;;;;;7.33;87.26;101704.55;105474;1257;61242;-75
2023/04/08 08:09:29;;;;;;;15.70;10.50;;;;;;;7.33;87.08;101707.17;105508;1258;74875;-72
2023/04/08 08:11:57;;;;;;;15.50;10.40;;;;;;;7.32;87.26;101705.15;106502;1256;71274;-73
2023/04/08 08:14:25;;;;;;;16.40;11.20;;;;;;;7.28;87.60;101708.80;105497;1256;72758;-74
2023/04/08 08:16:53;;;;;;;17.70;11.90;;;;;;;7.32;87.45;101712.87;106187;1256;61312;-71
2023/04/08 08:19:20;;;;;;;16.90;11.30;;;;;;;7.39;87.43;101717.41;105899;1254;61244;-71
2023/04/08 08:21:47;;;;;;;15.50;10.60;;;;;;;7.43;87.48;101720.25;105519;1254;74542;-73
2023/04/08 08:24:15;;;;;;;17.60;11.30;;;;;;;7.48;87.17;101720.50;105633;1256;69760;-73
2023/04/08 08:26:43;;;;;;;18.80;11.60;;;;;;;7.58;87.22;101729.56;105921;1258;71230;-71
2023/04/08 08:29:10;;;;;;;17.80;11.40;;;;;;;7.68;86.67;101731.36;108210;1255;59672;-70
2023/04/08 08:31:37;;;;;;;18.70;12.00;;;;;;;7.78;86.99;101733.52;109125;1254;58951;-71
2023/04/08 08:34:04;;;;;;;17.70;11.80;;;;;;;7.88;86.23;101731.76;109164;1254;74755;-71
2023/04/08 08:36:31;;;;;;;18.10;11.10;;;;;;;8.00;86.11;101735.43;109046;1255;69991;-71
2023/04/08 08:39:00;;;;;;;20.60;12.50;;;;;;;8.12;85.66;101731.06;109132;1253;71893;-71
2023/04/08 08:41:32;;;;;;;17.60;11.70;;;;;;;8.26;84.86;101729.70;108959;1256;59721;-70
2023/04/08 08:43:59;;;;;;;19.40;11.20;;;;;;;8.40;84.74;101731.16;107708;1254;61338;-71
2023/04/08 08:46:26;;;;;;;19.60;12.60;;;;;;;8.42;83.61;101727.95;106733;1254;73164;-71
2023/04/08 08:48:53;;;;;;;19.50;12.40;;;;;;;8.39;83.23;101727.30;106315;1255;71281;-74
2023/04/08 08:51:20;;;;;;;17.50;11.00;;;;;;;8.33;83.07;101734.71;106078;1254;72444;-71
2023/04/08 08:53:47;;;;;;;18.00;11.50;;;;;;;8.23;83.24;101739.48;107107;1259;61274;-70
2023/04/08 08:56:13;;;;;;;19.80;11.70;;;;;;;8.26;83.55;101741.85;107149;1259;59585;-73
2023/04/08 08:58:44;;;;;;;18.80;11.30;;;;;;;8.31;83.42;101745.61;107061;1258;72459;-71
2023/04/08 09:01:31;;;;;;;18.40;11.30;;;;;;;8.37;83.26;101753.02;108788;1253;70617;-71
2023/04/08 09:04:09;;;;;;;18.10;11.60;;;;;;;8.42;82.93;101755.50;108922;1254;72732;-71
2023/04/08 09:06:37;;;;;;;18.90;11.80;;;;;;;8.48;83.17;101754.23;108973;1254;59678;-71
2023/04/08 09:09:09;;;;;;;18.10;11.50;;;;;;;8.52;82.66;101757.04;108560;1257;61456;-72
2023/04/08 09:11:44;;;;;;;18.20;11.70;;;;;;;8.55;82.54;101765.09;106960;1259;75539;-71
2023/04/08 09:14:17;;;;;;;19.40;11.50;;;;;;;8.57;82.13;101760.34;106714;1259;70633;-72
2023/04/08 09:16:44;;;;;;;18.70;11.10;;;;;;;8.62;82.26;101763.04;107384;1257;72491;-71
2023/04/08 09:19:12;;;;;;;16.80;11.80;;;;;;;8.67;82.13;101764.04;109142;1254;60114;-71
2023/04/08 09:21:42;;;;;;;17.80;11.50;;;;;;;8.66;81.79;101766.79;108959;1254;60414;-71
2023/04/08 09:24:26;;;;;;;21.00;12.00;;;;;;;8.68;81.91;101772.89;108984;1254;74094;-71
2023/04/08 09:26:52;;;;;;;19.50;12.40;;;;;;;8.73;81.95;101773.17;109049;1254;70172;-71
2023/04/08 09:29:22;;;;;;;19.90;11.70;;;;;;;8.73;81.64;101775.35;109030;1254;71230;-71
2023/04/08 09:31:57;;;;;;;17.50;11.80;;;;;;;8.70;81.43;101778.02;108782;1254;61603;-71
2023/04/08 09:34:26;;;;;;;17.40;10.70;;;;;;;8.64;81.34;101777.00;108399;1254;60755;-72
2023/04/08 09:36:54;;;;;;;19.70;12.40;;;;;;;8.57;81.76;101774.45;107384;1260;73807;-72
2023/04/08 09:39:21;;;;;;;17.20;10.80;;;;;;;8.49;81.89;101771.25;107746;1254;69948;-71
2023/04/08 09:41:50;;;;;;;18.30;11.60;;;;;;;8.43;82.04;101775.44;108275;1256;72726;-71
2023/04/08 09:44:25;;;;;;;20.50;12.00;;;;;;;8.52;82.66;101779.48;107328;1257;61349;-72
2023/04/08 09:47:04;;;;;;;18.40;11.90;;;;;;;8.66;82.05;101781.41;106419;1254;61254;-71
2023/04/08 09:49:43;;;;;;;16.80;10.60;;;;;;;8.79;82.15;101780.73;106490;1254;75204;-71
2023/04/08 09:52:31;;;;;;;18.10;11.20;;;;;;;8.78;81.22;101783.18;106317;1258;70887;-72
2023/04/08 09:55:03;;;;;;;19.20;11.90;;;;;;;8.71;81.52;101785.55;106143;1256;72655;-73
2023/04/08 09:57:42;;;;;;;16.20;11.00;;;;;;;8.78;81.84;101794.27;106431;1256;61254;-71
2023/04/08 10:00:16;;;;;;;18.60;12.00;;;;;;;8.86;81.68;101794.09;107029;1256;61244;-71
2023/04/08 10:03:00;;;;;;;19.20;12.00;;;;;;;8.92;81.71;101789.62;106951;1254;73466;-71
2023/04/08 10:05:29;;;;;;;18.60;11.80;;;;;;;9.04;81.47;101795.70;106460;1258;70224;-72
2023/04/08 10:07:56;;;;;;;17.80;12.30;;;;;;;9.12;80.86;101791.45;105887;1256;72423;-72
2023/04/08 10:10:24;;;;;;;17.30;11.60;;;;;;;9.17;80.76;101784.58;106291;1254;61480;-74
2023/04/08 10:12:52;;;;;;;18.40;11.70;;;;;;;9.10;80.10;101786.46;106490;1254;61278;-73
2023/04/08 10:15:33;;;;;;;18.80;12.00;;;;;;;9.06;80.03;101797.41;106562;1255;74690;-71
2023/04/08 10:18:05;;;;;;;17.40;11.90;;;;;;;9.08;80.42;101801.81;106463;1257;71441;-72
2023/04/08 10:20:34;;;;;;;18.00;11.50;;;;;;;9.13;80.26;101795.41;106432;1254;72323;-71
2023/04/08 10:23:09;;;;;;;15.40;10.70;;;;;;;9.17;80.33;101789.73;107140;1259;61359;-71
2023/04/08 10:25:40;;;;;;;18.90;11.50;;;;;;;9.21;79.83;101790.59;106084;1254;61266;-73
2023/04/08 10:28:10;;;;;;;16.00;11.30;;;;;;;9.26;80.11;101795.58;106079;1254;73470;-73
2023/04/08 10:30:56;;;;;;;18.70;11.40;;;;;;;9.31;79.98;101791.27;106403;1254;70558;-71
2023/04/08 10:33:32;;;;;;;16.10;10.30;;;;;;;9.40;79.78;101793.48;106399;1256;71301;-72
2023/04/08 10:36:05;;;;;;;13.40;9.50;;;;;;;9.40;79.34;101795.25;106778;1256;61241;-72
2023/04/08 10:38:32;;;;;;;14.50;10.30;;;;;;;9.42;78.92;101794.95;106526;1258;61351;-73
2023/04/08 10:40:59;;;;;;;15.10;9.90;;;;;;;9.42;78.86;101792.60;107567;1257;74588;-71
2023/04/08 10:43:32;;;;;;;14.30;9.70;;;;;;;9.45;78.72;101792.29;106540;1254;69742;-72
2023/04/08 10:45:58;;;;;;;15.70;10.70;;;;;;;9.38;78.47;101795.05;106781;1254;71332;-71
2023/04/08 10:48:25;;;;;;;16.10;11.20;;;;;;;9.31;78.45;101791.45;106073;1257;61352;-71
2023/04/08 10:50:59;;;;;;;16.80;10.10;;;;;;;9.37;78.73;101796.05;106891;1255;59212;-71
2023/04/08 10:53:31;;;;;;;14.20;9.90;;;;;;;9.38;78.59;101792.20;107520;1258;75113;-72
2023/04/08 10:56:11;;;;;;;14.40;10.20;;;;;;;9.36;78.41;101793.42;108756;1257;71476;-72
2023/04/08 10:58:55;;;;;;;15.70;10.70;;;;;;;9.38;78.79;101789.89;109088;1256;71735;-72
2023/04/08 11:01:22;;;;;;;15.40;10.30;;;;;;;9.44;78.78;101795.75;109056;1255;60040;-72
2023/04/08 11:03:49;;;;;;;14.20;10.10;;;;;;;9.46;78.86;101793.33;109114;1253;60197;-72
2023/04/08 11:06:18;;;;;;;16.00;10.70;;;;;;;9.44;78.56;101792.45;108999;1254;73870;-72
2023/04/08 11:08:46;;;;;;;14.40;9.70;;;;;;;9.41;78.45;101794.08;108468;1255;69379;-71
2023/04/08 11:11:13;;;;;;;15.70;11.40;;;;;;;9.42;78.93;101794.22;108399;1257;73338;-71
2023/04/08 11:13:42;;;;;;;16.10;10.70;;;;;;;9.49;78.95;101800.28;107491;1254;61728;-72
2023/04/08 11:16:20;;;;;;;15.70;11.00;;;;;;;9.55;78.69;101803.05;107487;1254;61278;-71
2023/04/08 11:18:47;;;;;;;16.10;10.70;;;;;;;9.54;78.52;101807.41;107670;1260;75337;-71
2023/04/08 11:21:15;;;;;;;16.70;11.40;;;;;;;9.54;78.38;101806.16;106995;1258;70006;-71